Time;durP1;ratioP1;P1;durP2;ratioP2;P2;SDS_P1;SDS_P2;PMS_P1;PMS_P2;Temp;Humidity;BMP_temperature;BMP_pressure;BME280_temperature;BME280_humidity;BME280_pressure;Samples;Min_cycle;Max_cycle;Signal;HPM_P1;HPM_P2
2022/02/19 00:00:12;;;;;;;7.38;2.38;;;;;;;8.16;43.68;99286.44;10313329;28;20042;-62
2022/02/19 00:05:14;;;;;;;9.10;2.90;;;;;;;8.09;43.42;99297.56;10314505;28;20060;-61
2022/02/19 00:10:15;;;;;;;8.98;2.15;;;;;;;8.17;43.89;99327.88;10319313;28;20121;-62
2022/02/19 00:15:17;;;;;;;9.73;2.35;;;;;;;8.18;44.04;99345.47;10312810;28;20057;-62
2022/02/19 00:20:18;;;;;;;8.52;1.77;;;;;;;8.06;44.40;99316.38;10311064;28;20058;-61
2022/02/19 00:25:20;;;;;;;6.88;1.58;;;;;;;8.12;44.95;99323.81;10311701;28;20050;-61
2022/02/19 00:30:22;;;;;;;12.15;3.30;;;;;;;8.09;45.41;99334.69;10327805;28;20049;-61
2022/02/19 00:35:23;;;;;;;9.73;2.80;;;;;;;8.02;45.05;99338.81;10308351;28;20333;-62
2022/02/19 00:40:26;;;;;;;5.97;2.35;;;;;;;7.92;45.01;99328.13;10320588;28;20120;-62
2022/02/19 00:45:27;;;;;;;6.47;1.83;;;;;;;8.04;45.25;99397.00;10308171;28;20050;-61
2022/02/19 00:50:29;;;;;;;6.40;1.60;;;;;;;7.87;47.32;99385.16;10308880;28;20132;-62
2022/02/19 00:55:30;;;;;;;7.60;1.35;;;;;;;7.79;47.31;99429.03;10314457;28;20101;-62
2022/02/19 01:00:32;;;;;;;6.65;1.83;;;;;;;7.54;51.83;99426.69;10313469;28;20831;-61
2022/02/19 01:05:33;;;;;;;3.88;1.27;;;;;;;7.35;52.41;99428.16;10318620;28;20058;-61
2022/02/19 01:10:37;;;;;;;7.18;1.55;;;;;;;7.30;52.90;99424.22;10312163;28;20113;-61
2022/02/19 01:15:38;;;;;;;7.97;1.70;;;;;;;7.44;52.71;99442.47;10311013;28;20046;-62
2022/02/19 01:20:42;;;;;;;8.70;2.17;;;;;;;7.59;51.00;99448.34;10315678;28;20143;-61
2022/02/19 01:25:43;;;;;;;4.50;1.45;;;;;;;7.28;50.98;99458.75;10312746;28;20134;-62
2022/02/19 01:30:45;;;;;;;5.97;1.55;;;;;;;7.31;51.16;99466.44;10313970;28;20045;-63
2022/02/19 01:35:46;;;;;;;5.03;1.17;;;;;;;7.23;51.10;99460.91;10317543;28;20581;-62
2022/02/19 01:40:47;;;;;;;5.35;1.23;;;;;;;7.17;51.65;99487.88;10317595;28;20064;-63
2022/02/19 01:45:49;;;;;;;5.55;1.98;;;;;;;7.14;51.52;99482.81;10315834;28;20058;-62
2022/02/19 01:50:50;;;;;;;6.45;1.80;;;;;;;7.11;52.08;99504.22;10318272;28;20057;-60
2022/02/19 01:55:54;;;;;;;6.97;2.88;;;;;;;7.04;52.03;99510.00;10316548;28;20509;-61
2022/02/19 02:00:56;;;;;;;7.68;1.73;;;;;;;7.19;51.81;99507.09;10319211;28;20523;-62
2022/02/19 02:05:57;;;;;;;8.30;1.75;;;;;;;7.11;51.11;99514.81;10320236;28;20055;-61
2022/02/19 02:11:01;;;;;;;5.88;1.60;;;;;;;7.08;50.90;99500.84;10321990;28;20060;-63
2022/02/19 02:16:03;;;;;;;7.47;1.75;;;;;;;7.06;51.04;99502.78;10315893;28;20070;-61
2022/02/19 02:21:04;;;;;;;6.90;2.00;;;;;;;6.87;51.12;99484.84;10316805;28;20201;-61
2022/02/19 02:26:06;;;;;;;8.18;1.77;;;;;;;7.01;50.74;99515.53;10313029;28;20058;-61
2022/02/19 02:31:08;;;;;;;5.85;1.75;;;;;;;7.03;50.60;99526.00;10318492;28;20054;-60
2022/02/19 02:36:09;;;;;;;7.05;1.73;;;;;;;7.02;50.72;99511.91;10319239;28;20053;-61
2022/02/19 02:41:11;;;;;;;6.50;1.65;;;;;;;7.01;49.37;99515.53;10321538;28;20133;-61
2022/02/19 02:46:12;;;;;;;7.50;1.13;;;;;;;7.04;48.46;99539.13;10318721;28;20188;-61
2022/02/19 02:51:14;;;;;;;6.50;1.42;;;;;;;7.15;48.08;99553.31;10313872;28;20064;-61
2022/02/19 02:56:16;;;;;;;7.20;1.63;;;;;;;6.89;53.34;99580.81;10321296;28;20034;-61
2022/02/19 03:01:17;;;;;;;3.08;1.45;;;;;;;6.52;58.85;99598.59;10316619;28;20066;-61
2022/02/19 03:06:19;;;;;;;8.27;1.58;;;;;;;6.23;61.97;99630.66;10321640;28;20133;-62
2022/02/19 03:11:20;;;;;;;6.47;1.38;;;;;;;5.99;62.05;99581.28;10308704;28;20133;-61
2022/02/19 03:16:21;;;;;;;7.47;1.50;;;;;;;6.09;61.81;99604.38;10318580;28;20056;-62
2022/02/19 03:21:23;;;;;;;5.85;2.17;;;;;;;6.24;61.68;99595.34;10316007;28;20448;-61
2022/02/19 03:26:24;;;;;;;5.65;2.20;;;;;;;6.46;59.74;99607.81;10318224;28;20585;-61
2022/02/19 03:31:25;;;;;;;7.82;1.88;;;;;;;6.49;58.31;99635.84;10317477;28;20038;-62
2022/02/19 03:36:27;;;;;;;8.07;1.30;;;;;;;6.54;59.82;99653.06;10319190;28;20049;-61
2022/02/19 03:41:28;;;;;;;8.90;2.00;;;;;;;6.33;60.40;99657.25;10314410;28;20050;-61
2022/02/19 03:46:31;;;;;;;5.00;1.30;;;;;;;6.10;61.20;99645.72;10316247;28;20058;-60
2022/02/19 03:51:33;;;;;;;8.18;1.83;;;;;;;6.00;59.15;99661.38;10312326;28;20556;-61
2022/02/19 03:56:34;;;;;;;8.00;1.75;;;;;;;6.15;59.38;99672.66;10313489;28;20047;-61
2022/02/19 04:01:35;;;;;;;7.05;1.10;;;;;;;6.10;57.74;99680.06;10315693;28;20054;-61
2022/02/19 04:06:37;;;;;;;6.75;1.17;;;;;;;6.25;57.23;99696.63;10315609;28;20046;-61
2022/02/19 04:11:38;;;;;;;6.53;1.73;;;;;;;6.26;57.60;99707.09;10314217;28;20560;-62
2022/02/19 04:16:40;;;;;;;5.20;1.08;;;;;;;6.11;60.00;99711.66;10314166;28;20464;-61
2022/02/19 04:21:41;;;;;;;6.93;1.50;;;;;;;5.97;61.30;99720.53;10310787;28;20600;-61
2022/02/19 04:26:43;;;;;;;3.83;1.20;;;;;;;5.81;60.31;99725.16;10311599;28;20082;-61
2022/02/19 04:31:44;;;;;;;5.43;1.20;;;;;;;5.71;60.64;99732.06;10313994;28;20205;-61
2022/02/19 04:36:46;;;;;;;4.97;1.33;;;;;;;5.71;60.81;99742.63;10318413;28;22776;-62
2022/02/19 04:41:47;;;;;;;4.90;1.23;;;;;;;5.68;61.05;99756.03;10312014;28;20042;-61
2022/02/19 04:46:48;;;;;;;3.88;1.70;;;;;;;5.61;60.24;99774.06;10322749;28;20551;-62
2022/02/19 04:51:50;;;;;;;3.35;1.10;;;;;;;5.60;60.23;99781.16;10310910;28;20050;-60
2022/02/19 04:56:52;;;;;;;6.13;1.55;;;;;;;5.62;59.62;99773.97;10313675;28;20704;-61
2022/02/19 05:01:53;;;;;;;4.40;1.17;;;;;;;5.60;59.67;99790.84;10313893;28;20052;-61
2022/02/19 05:06:54;;;;;;;6.28;1.10;;;;;;;5.49;60.22;99791.59;10310801;28;20045;-62
2022/02/19 05:11:56;;;;;;;4.82;1.27;;;;;;;5.36;60.27;99778.38;10311895;28;20056;-61
2022/02/19 05:16:57;;;;;;;6.30;1.40;;;;;;;5.62;60.63;99820.66;10313390;28;20134;-62
2022/02/19 05:21:59;;;;;;;6.03;1.40;;;;;;;5.71;60.39;99821.84;10312228;28;20057;-62
2022/02/19 05:27:00;;;;;;;5.28;1.58;;;;;;;5.63;59.41;99822.34;10312825;28;20053;-64
2022/02/19 05:32:02;;;;;;;7.50;1.42;;;;;;;5.78;58.87;99849.50;10304910;28;20152;-59
2022/02/19 05:37:04;;;;;;;6.63;1.63;;;;;;;5.84;58.20;99857.06;10297728;28;20132;-60
2022/02/19 05:42:06;;;;;;;2.88;0.75;;;;;;;5.88;57.88;99863.81;10305720;28;20049;-58
2022/02/19 05:47:07;;;;;;;5.63;1.52;;;;;;;5.86;57.10;99867.53;10306648;28;20497;-61
2022/02/19 05:52:09;;;;;;;9.90;2.67;;;;;;;5.80;56.69;99874.06;10308215;28;20056;-60
2022/02/19 05:57:11;;;;;;;5.00;1.45;;;;;;;5.61;57.02;99869.13;10307530;28;20133;-59
2022/02/19 06:02:13;;;;;;;8.88;1.83;;;;;;;5.73;57.08;99910.56;10307616;28;20077;-61
2022/02/19 06:07:14;;;;;;;8.20;1.55;;;;;;;5.67;56.48;99908.34;10311395;28;20114;-61
2022/02/19 06:12:15;;;;;;;5.40;1.30;;;;;;;5.59;56.70;99911.47;10303360;28;20125;-60
2022/02/19 06:17:17;;;;;;;5.88;1.10;;;;;;;5.53;57.29;99917.16;10308245;28;20046;-60
2022/02/19 06:22:18;;;;;;;8.15;2.03;;;;;;;5.55;57.20;99925.81;10311417;28;20045;-60
2022/02/19 06:27:20;;;;;;;6.43;2.28;;;;;;;5.55;57.05;99933.75;10308658;28;20582;-61
2022/02/19 06:32:21;;;;;;;4.40;1.70;;;;;;;5.60;56.97;99959.84;10312823;28;20630;-61
2022/02/19 06:37:22;;;;;;;7.47;2.35;;;;;;;5.57;56.73;99960.91;10311976;28;20054;-61
2022/02/19 06:42:24;;;;;;;3.20;1.67;;;;;;;5.58;56.92;99965.22;10313844;28;20476;-61
2022/02/19 06:47:26;;;;;;;5.53;1.23;;;;;;;5.40;56.51;99954.06;10311706;28;20576;-62
2022/02/19 06:52:28;;;;;;;5.07;1.50;;;;;;;5.53;56.50;99984.97;10307381;28;20054;-62
2022/02/19 06:57:29;;;;;;;5.38;1.90;;;;;;;5.61;57.26;100001.16;10307516;28;20101;-62
2022/02/19 07:02:30;;;;;;;7.05;1.70;;;;;;;5.63;57.11;100018.63;10310564;28;20622;-62
2022/02/19 07:07:32;;;;;;;8.18;1.65;;;;;;;5.54;56.39;100007.78;10310446;28;20066;-61
2022/02/19 07:12:33;;;;;;;4.07;1.40;;;;;;;5.63;56.92;100023.91;10309732;28;20568;-61
2022/02/19 07:17:49;;;;;;;6.13;1.63;;;;;;;5.63;56.51;100018.63;10309778;28;20050;-63
2022/02/19 07:22:51;;;;;;;3.83;1.52;;;;;;;5.70;56.44;100029.63;10303596;28;20058;-59
2022/02/19 07:27:53;;;;;;;5.13;1.63;;;;;;;5.86;56.39;100045.34;10304765;28;20473;-62
2022/02/19 07:32:55;;;;;;;4.72;1.50;;;;;;;5.96;56.43;100056.16;10304559;28;20068;-62
2022/02/19 07:37:58;;;;;;;6.90;1.90;;;;;;;6.13;54.99;100042.75;10304035;28;20572;-62
2022/02/19 07:42:59;;;;;;;7.60;1.30;;;;;;;6.43;54.16;100054.88;10302112;28;20056;-63
2022/02/19 07:48:01;;;;;;;5.30;1.65;;;;;;;6.40;52.96;100067.47;10309473;28;20430;-59
2022/02/19 07:58:23;;;;;;;4.15;1.58;;;;;;;6.87;52.49;100111.06;10338805;28;20057;-59
2022/02/19 08:03:27;;;;;;;3.95;1.42;;;;;;;7.21;52.13;100109.59;10340440;28;20057;-60
2022/02/19 08:08:28;;;;;;;6.83;1.50;;;;;;;7.18;50.42;100095.75;10339405;28;20056;-62
2022/02/19 08:13:30;;;;;;;5.10;1.48;;;;;;;7.33;50.22;100115.88;10335957;28;20045;-59
2022/02/19 08:18:32;;;;;;;6.55;1.35;;;;;;;7.46;50.14;100129.13;10337896;28;20072;-59
2022/02/19 08:23:34;;;;;;;6.80;1.60;;;;;;;7.53;48.91;100124.22;10335072;28;20732;-61
2022/02/19 08:28:35;;;;;;;4.93;1.50;;;;;;;7.64;49.11;100148.19;10302604;28;20068;-60
2022/02/19 08:33:37;;;;;;;6.15;1.10;;;;;;;7.95;48.11;100146.00;10297257;28;20046;-61
2022/02/19 08:38:38;;;;;;;4.13;1.10;;;;;;;7.89;47.60;100159.69;10301951;28;20065;-60
2022/02/19 08:43:40;;;;;;;8.05;1.75;;;;;;;7.97;46.94;100183.81;10307143;28;20052;-62
2022/02/19 08:48:41;;;;;;;4.97;1.17;;;;;;;7.91;47.35;100186.91;10306911;28;20085;-60
2022/02/19 08:53:43;;;;;;;6.15;1.00;;;;;;;7.99;46.93;100197.84;10311018;28;20160;-60
2022/02/19 08:58:45;;;;;;;5.95;1.00;;;;;;;8.17;46.44;100195.69;10302862;28;20057;-65
2022/02/19 09:03:46;;;;;;;4.63;0.82;;;;;;;8.29;45.82;100201.91;10303130;28;20046;-62
2022/02/19 09:08:48;;;;;;;6.68;1.98;;;;;;;8.52;44.53;100212.72;10298003;28;20045;-61
2022/02/19 09:13:54;;;;;;;6.20;2.13;;;;;;;8.57;44.26;100237.09;10329110;28;20183;-62
2022/02/19 09:18:55;;;;;;;4.07;1.10;;;;;;;9.02;43.77;100229.34;10336453;28;20050;-61
2022/02/19 09:23:57;;;;;;;3.72;0.98;;;;;;;9.50;42.93;100231.97;10340755;28;20495;-62
2022/02/19 09:28:59;;;;;;;4.72;1.20;;;;;;;9.50;41.75;100229.31;10336364;28;20058;-64
2022/02/19 09:34:00;;;;;;;3.78;1.05;;;;;;;9.53;41.78;100214.91;10334544;28;20537;-64
2022/02/19 09:39:02;;;;;;;6.63;1.45;;;;;;;9.97;41.34;100233.69;10337446;28;20959;-61
2022/02/19 09:44:04;;;;;;;7.00;1.55;;;;;;;10.39;40.79;100226.84;10337322;28;20038;-62
2022/02/19 09:49:08;;;;;;;5.27;1.10;;;;;;;10.24;41.04;100226.22;10336010;28;20168;-60
2022/02/19 09:54:13;;;;;;;4.55;1.45;;;;;;;10.56;39.50;100230.78;10342259;28;20672;-62
2022/02/19 09:59:14;;;;;;;3.83;1.60;;;;;;;10.99;38.66;100212.25;10343745;28;20520;-61
2022/02/19 10:04:25;;;;;;;4.75;0.77;;;;;;;11.48;38.17;100237.47;10338885;28;20132;-62
2022/02/19 10:09:28;;;;;;;5.90;1.80;;;;;;;12.12;36.81;100230.28;10335102;28;20099;-62
2022/02/19 10:14:33;;;;;;;4.03;1.23;;;;;;;14.96;31.79;100241.44;10340574;28;20140;-62
2022/02/19 10:19:55;;;;;;;7.80;1.50;;;;;;;16.34;29.47;100242.63;10340860;28;20049;-63
2022/02/19 10:25:02;;;;;;;5.07;1.48;;;;;;;18.04;27.66;100237.75;10346611;28;20041;-62
2022/02/19 10:30:04;;;;;;;3.75;1.10;;;;;;;17.35;27.21;100248.09;10343984;28;20064;-60
2022/02/19 10:35:06;;;;;;;4.18;1.02;;;;;;;15.65;29.12;100247.91;10340346;28;20054;-62
2022/02/19 10:40:08;;;;;;;3.67;0.85;;;;;;;15.00;30.08;100243.66;10319663;28;20191;-61
2022/02/19 10:45:10;;;;;;;2.83;0.95;;;;;;;14.53;29.90;100272.41;10311220;28;20050;-62
2022/02/19 10:50:20;;;;;;;3.75;1.00;;;;;;;16.85;28.13;100266.81;10301665;28;20137;-63
2022/02/19 10:55:42;;;;;;;3.55;0.70;;;;;;;17.90;25.27;100239.31;10313939;28;20064;-64
2022/02/19 11:00:44;;;;;;;4.45;1.00;;;;;;;20.86;21.61;100252.34;10338416;28;20054;-61
2022/02/19 11:05:47;;;;;;;2.70;1.00;;;;;;;22.89;19.73;100252.53;10325115;28;20446;-62
2022/02/19 11:10:51;;;;;;;2.90;1.63;;;;;;;24.41;17.79;100259.25;10341290;28;20068;-62
2022/02/19 11:15:52;;;;;;;5.18;1.00;;;;;;;23.77;18.73;100254.34;10335275;28;20133;-63
2022/02/19 11:20:54;;;;;;;4.43;1.35;;;;;;;23.83;17.98;100241.81;10345093;28;20060;-62
2022/02/19 11:25:57;;;;;;;3.78;0.85;;;;;;;24.66;17.27;100233.00;10342721;28;20892;-62
2022/02/19 11:31:00;;;;;;;3.97;1.20;;;;;;;24.46;16.84;100234.97;10336156;28;20049;-62
2022/02/19 11:36:07;;;;;;;4.85;1.67;;;;;;;25.02;16.60;100222.56;10342278;28;20050;-62
2022/02/19 11:41:14;;;;;;;3.45;0.95;;;;;;;19.96;21.43;100235.34;10342342;28;20050;-63
2022/02/19 11:46:15;;;;;;;2.85;0.80;;;;;;;18.22;23.93;100221.38;10323147;28;20050;-61
2022/02/19 11:51:20;;;;;;;5.03;0.80;;;;;;;15.99;26.90;100222.13;10309521;28;20424;-61
2022/02/19 11:56:32;;;;;;;5.28;1.08;;;;;;;14.74;28.69;100199.84;10309573;28;21164;-61
2022/02/19 12:01:33;;;;;;;3.88;1.23;;;;;;;22.36;20.12;100187.28;10305970;28;20045;-62
2022/02/19 12:06:35;;;;;;;3.97;0.93;;;;;;;24.40;18.12;100176.81;10309228;28;20057;-62
2022/02/19 12:11:49;;;;;;;4.20;1.10;;;;;;;26.67;16.31;100173.97;10313474;28;20427;-62
2022/02/19 12:16:51;;;;;;;4.53;1.38;;;;;;;27.91;14.82;100166.03;10308335;28;20142;-62
2022/02/19 12:21:52;;;;;;;5.20;1.90;;;;;;;22.87;18.95;100177.84;10305224;28;20057;-60
2022/02/19 12:26:56;;;;;;;6.47;1.58;;;;;;;17.67;25.07;100180.78;10307679;28;20054;-61
2022/02/19 12:32:22;;;;;;;5.03;1.17;;;;;;;18.99;23.72;100196.38;10301293;28;20473;-61
2022/02/19 12:37:32;;;;;;;5.05;1.48;;;;;;;16.11;28.13;100183.28;10314358;28;20053;-62
2022/02/19 12:42:34;;;;;;;5.05;1.20;;;;;;;23.03;20.19;100176.59;10314916;28;20060;-62
2022/02/19 12:47:38;;;;;;;5.15;1.20;;;;;;;20.56;22.25;100192.88;10311372;28;20057;-62
2022/02/19 12:52:39;;;;;;;3.95;1.42;;;;;;;21.74;21.23;100197.13;10303528;28;20053;-62
2022/02/19 12:57:41;;;;;;;4.63;1.30;;;;;;;17.11;26.34;100201.34;10310617;28;20699;-61
2022/02/19 13:02:45;;;;;;;5.15;1.17;;;;;;;14.06;31.45;100209.91;10304980;28;20572;-62
2022/02/19 13:07:46;;;;;;;2.85;0.93;;;;;;;12.78;33.20;100186.19;10307941;28;20077;-59
2022/02/19 13:12:48;;;;;;;4.53;1.50;;;;;;;11.88;34.92;100198.56;10297034;28;20054;-61
2022/02/19 13:17:53;;;;;;;4.93;2.95;;;;;;;11.89;35.60;100203.75;10300672;28;20105;-61
2022/02/19 13:22:55;;;;;;;5.30;1.20;;;;;;;11.64;35.89;100179.19;10303305;28;20145;-61
2022/02/19 13:28:07;;;;;;;3.05;1.20;;;;;;;11.51;36.88;100221.22;10311060;28;20054;-61
2022/02/19 13:33:08;;;;;;;3.05;1.10;;;;;;;11.11;37.19;100225.41;10315485;28;20053;-61
2022/02/19 13:38:10;;;;;;;5.32;2.20;;;;;;;11.15;37.64;100236.66;10314285;28;20290;-62
2022/02/19 13:43:16;;;;;;;3.47;1.23;;;;;;;10.67;38.26;100215.75;10322656;28;20137;-60
2022/02/19 13:48:25;;;;;;;5.72;2.28;;;;;;;10.43;38.95;100235.41;10311388;28;20053;-64
2022/02/19 13:53:30;;;;;;;6.18;1.73;;;;;;;10.43;39.25;100246.03;10314254;28;20052;-60
2022/02/19 13:58:44;;;;;;;4.18;0.90;;;;;;;10.22;38.93;100235.28;10312549;28;20310;-61
2022/02/19 14:03:53;;;;;;;4.10;1.57;;;;;;;10.28;38.99;100242.75;10309654;28;20050;-63
2022/02/19 14:09:16;;;;;;;3.85;1.13;;;;;;;10.35;37.78;100235.19;10314437;28;20061;-62
2022/02/19 14:14:34;;;;;;;4.97;1.48;;;;;;;10.19;37.87;100223.09;10340200;28;20041;-61
2022/02/19 14:19:36;;;;;;;3.55;1.42;;;;;;;10.16;37.93;100225.94;10343116;28;20220;-61
2022/02/19 14:25:11;;;;;;;4.80;1.25;;;;;;;10.16;38.19;100212.66;10345247;28;20144;-63
2022/02/19 14:30:13;;;;;;;4.60;0.82;;;;;;;9.70;38.21;100192.38;10300547;28;20107;-61
2022/02/19 14:35:14;;;;;;;6.28;1.63;;;;;;;9.64;39.05;100184.88;10316393;28;20496;-62
2022/02/19 14:40:16;;;;;;;4.95;2.13;;;;;;;9.43;40.72;100190.88;10312596;28;20121;-63
2022/02/19 14:45:17;;;;;;;7.78;1.95;;;;;;;9.72;40.38;100188.59;10314385;28;20046;-60
2022/02/19 14:50:19;;;;;;;4.82;1.85;;;;;;;9.81;40.51;100180.88;10314275;28;20056;-60
2022/02/19 14:55:20;;;;;;;3.53;1.55;;;;;;;10.39;38.89;100172.78;10305160;28;20136;-63
2022/02/19 15:00:22;;;;;;;4.28;1.33;;;;;;;9.96;39.58;100185.00;10307099;28;20485;-60
2022/02/19 15:05:23;;;;;;;6.88;1.95;;;;;;;9.80;40.41;100182.69;10319778;28;20049;-60
2022/02/19 15:10:27;;;;;;;3.80;1.48;;;;;;;9.68;40.75;100204.91;10310647;28;20058;-61
2022/02/19 15:15:29;;;;;;;3.55;1.33;;;;;;;10.28;39.89;100200.19;10311965;28;20058;-60
2022/02/19 15:20:30;;;;;;;2.70;0.98;;;;;;;10.44;39.20;100186.53;10311185;28;20054;-61
2022/02/19 15:25:33;;;;;;;4.00;0.98;;;;;;;10.08;39.55;100186.66;10311744;28;20432;-60
2022/02/19 15:30:34;;;;;;;2.03;0.80;;;;;;;9.78;39.88;100166.00;10310267;28;20508;-60
2022/02/19 15:35:36;;;;;;;5.25;1.13;;;;;;;9.54;40.68;100143.03;10309977;28;20046;-60
2022/02/19 15:40:38;;;;;;;4.25;1.23;;;;;;;9.44;41.13;100149.19;10309968;28;20057;-60
2022/02/19 15:45:39;;;;;;;4.38;1.73;;;;;;;9.18;41.21;100136.94;10311075;28;20050;-62
2022/02/19 15:50:41;;;;;;;7.70;0.95;;;;;;;9.25;41.55;100152.41;10306601;28;21181;-62
2022/02/19 15:55:42;;;;;;;5.07;1.55;;;;;;;9.31;41.64;100144.84;10301403;28;20050;-63
2022/02/19 16:00:44;;;;;;;8.68;2.60;;;;;;;9.07;41.61;100123.66;10307511;28;20061;-64
2022/02/19 16:05:46;;;;;;;4.82;1.13;;;;;;;8.96;41.02;100143.06;10302013;28;20046;-62
2022/02/19 16:10:47;;;;;;;4.07;1.20;;;;;;;8.78;41.77;100134.69;10312652;28;20064;-62
2022/02/19 16:15:49;;;;;;;4.85;1.10;;;;;;;8.73;41.73;100115.59;10309470;28;20054;-61
2022/02/19 16:20:50;;;;;;;4.72;1.30;;;;;;;8.71;41.93;100117.53;10305448;28;20117;-64
2022/02/19 16:25:52;;;;;;;6.28;1.20;;;;;;;8.54;42.73;100108.19;10299931;28;20054;-63
2022/02/19 16:30:53;;;;;;;3.70;1.25;;;;;;;8.52;42.78;100088.00;10327307;28;20518;-62
2022/02/19 16:36:00;;;;;;;4.32;1.90;;;;;;;8.41;42.99;100068.41;10329406;28;20060;-64
2022/02/19 16:41:02;;;;;;;4.70;1.40;;;;;;;8.42;43.09;100083.38;10304580;28;20129;-62
2022/02/19 16:46:05;;;;;;;5.25;1.33;;;;;;;8.12;42.99;100046.69;10302316;28;20144;-62
2022/02/19 16:51:06;;;;;;;3.95;2.15;;;;;;;8.19;43.37;100100.13;10308088;28;20077;-63
2022/02/19 16:56:08;;;;;;;6.55;2.45;;;;;;;8.18;43.39;100098.41;10298365;28;20096;-61
2022/02/19 17:01:10;;;;;;;4.13;2.00;;;;;;;8.05;43.32;100083.41;10304207;28;20523;-60
2022/02/19 17:06:12;;;;;;;4.25;1.20;;;;;;;8.01;43.61;100087.22;10305255;28;20076;-62
2022/02/19 17:11:14;;;;;;;5.10;1.55;;;;;;;8.02;43.16;100091.59;10279316;28;20065;-61
2022/02/19 17:16:16;;;;;;;4.15;1.13;;;;;;;8.00;43.20;100096.16;10311043;28;20064;-61
2022/02/19 17:21:18;;;;;;;4.57;1.30;;;;;;;7.96;43.56;100090.22;10303532;28;20089;-61
2022/02/19 17:26:22;;;;;;;2.90;1.30;;;;;;;7.89;43.40;100086.31;10300820;28;20049;-60
2022/02/19 17:31:26;;;;;;;6.43;1.55;;;;;;;7.67;44.13;100083.50;10301902;28;20398;-60
2022/02/19 17:36:32;;;;;;;3.85;1.63;;;;;;;7.65;43.95;100075.66;10307267;28;20723;-61
2022/02/19 17:41:34;;;;;;;4.65;1.80;;;;;;;7.67;43.95;100084.38;10306921;28;20140;-62
2022/02/19 17:46:36;;;;;;;4.15;1.48;;;;;;;7.65;44.39;100075.66;10308308;28;20086;-61
2022/02/19 17:51:37;;;;;;;3.58;1.45;;;;;;;7.54;44.83;100065.00;10301577;28;20772;-60
2022/02/19 17:56:40;;;;;;;4.45;1.67;;;;;;;7.62;45.00;100075.88;10312719;28;20046;-60
2022/02/19 18:01:42;;;;;;;4.00;1.33;;;;;;;7.59;44.95;100076.09;10282390;28;20054;-61
2022/02/19 18:06:44;;;;;;;3.67;1.75;;;;;;;7.56;45.31;100071.88;10309750;28;20113;-68
2022/02/19 18:11:45;;;;;;;4.65;2.05;;;;;;;7.55;45.30;100064.03;10303412;28;20057;-60
2022/02/19 18:16:47;;;;;;;6.78;1.40;;;;;;;7.53;45.66;100058.00;10322327;28;20077;-60
2022/02/19 18:22:04;;;;;;;9.43;2.85;;;;;;;7.49;46.04;100053.88;10310688;28;20053;-61
2022/02/19 18:27:05;;;;;;;5.63;1.90;;;;;;;7.50;46.10;100035.22;10305362;28;20647;-59
2022/02/19 18:32:07;;;;;;;7.78;1.90;;;;;;;7.57;46.01;100036.47;10302253;28;20200;-60
2022/02/19 18:37:08;;;;;;;4.40;1.80;;;;;;;7.60;46.07;100011.59;10307367;28;20053;-62
2022/02/19 18:42:10;;;;;;;6.55;1.63;;;;;;;7.53;46.36;100007.69;10306488;28;20054;-60
2022/02/19 18:47:32;;;;;;;4.28;1.23;;;;;;;7.44;47.05;99986.19;10311283;28;20057;-60
2022/02/19 18:52:34;;;;;;;3.88;1.33;;;;;;;7.32;47.30;99979.13;10303941;28;20077;-61
2022/02/19 18:57:35;;;;;;;7.32;1.38;;;;;;;7.46;47.81;99974.63;10310165;28;20091;-64
2022/02/19 19:02:37;;;;;;;7.25;2.20;;;;;;;7.34;48.04;99966.63;10309245;28;20175;-62
2022/02/19 19:07:39;;;;;;;3.30;1.13;;;;;;;7.33;48.41;99953.50;10307866;28;20076;-61
2022/02/19 19:12:41;;;;;;;7.22;1.88;;;;;;;7.47;48.93;99939.25;10314376;28;20081;-62
2022/02/19 19:17:44;;;;;;;6.57;2.47;;;;;;;7.37;48.75;99937.28;10310558;28;20085;-62
2022/02/19 19:22:46;;;;;;;4.55;1.90;;;;;;;7.43;48.89;99939.47;10304722;28;20596;-64
2022/02/19 19:27:47;;;;;;;4.47;2.30;;;;;;;7.30;49.46;99933.38;10294885;28;20041;-60
2022/02/19 19:32:49;;;;;;;4.82;2.15;;;;;;;7.23;49.85;99932.13;10309440;28;20168;-60
2022/02/19 19:38:13;;;;;;;6.25;2.03;;;;;;;7.25;49.69;99935.50;10305775;28;20057;-60
2022/02/19 19:43:15;;;;;;;5.20;1.85;;;;;;;7.13;50.10;99915.19;10302754;28;20060;-61
2022/02/19 19:48:16;;;;;;;6.35;2.22;;;;;;;7.18;50.22;99928.97;10304021;28;20673;-61
2022/02/19 19:53:18;;;;;;;6.00;1.80;;;;;;;7.15;50.33;99908.00;10301808;28;20677;-59
2022/02/19 19:58:20;;;;;;;4.03;1.63;;;;;;;7.22;50.43;99898.66;10308143;28;20110;-62
2022/02/19 20:03:22;;;;;;;5.45;1.52;;;;;;;7.30;50.35;99896.31;10299581;28;20259;-59
2022/02/19 20:08:23;;;;;;;4.88;1.48;;;;;;;7.70;61.35;99893.41;10306554;28;20236;-60
2022/02/19 20:13:25;;;;;;;5.13;1.65;;;;;;;7.89;52.67;99889.34;10305308;28;20501;-63
2022/02/19 20:18:27;;;;;;;2.60;1.17;;;;;;;7.90;50.58;99872.50;10305527;28;20073;-62
2022/02/19 20:23:28;;;;;;;6.40;1.48;;;;;;;7.74;49.81;99889.53;10300311;28;20164;-61
2022/02/19 20:28:30;;;;;;;4.78;1.85;;;;;;;7.74;49.68;99860.38;10301652;28;20050;-65
2022/02/19 20:33:31;;;;;;;6.07;1.77;;;;;;;7.65;49.24;99842.53;10296367;28;20177;-63
2022/02/19 20:38:33;;;;;;;5.82;1.70;;;;;;;7.47;49.76;99834.16;10303389;28;20086;-63
2022/02/19 20:43:34;;;;;;;5.13;1.45;;;;;;;7.39;49.59;99821.50;10296816;28;20061;-61
2022/02/19 20:48:36;;;;;;;3.90;0.90;;;;;;;7.37;49.89;99828.72;10300185;28;20749;-59
2022/02/19 20:53:37;;;;;;;7.65;2.13;;;;;;;7.36;49.76;99824.38;10304534;28;20650;-62
2022/02/19 20:58:41;;;;;;;7.50;2.08;;;;;;;7.39;50.20;99840.03;10303984;28;20048;-61
2022/02/19 21:03:42;;;;;;;4.43;1.15;;;;;;;7.44;49.95;99835.22;10302660;28;20491;-60
2022/02/19 21:08:44;;;;;;;4.22;1.27;;;;;;;7.41;50.36;99834.63;10306592;28;20060;-61
2022/02/19 21:13:45;;;;;;;5.05;1.23;;;;;;;7.28;52.71;99802.94;10303035;28;20166;-61
2022/02/19 21:18:47;;;;;;;8.00;2.10;;;;;;;7.12;53.84;99818.25;10316312;28;20120;-61
2022/02/19 21:23:48;;;;;;;2.92;0.98;;;;;;;7.17;54.12;99810.78;10303790;28;20065;-62
2022/02/19 21:28:53;;;;;;;5.35;1.65;;;;;;;7.18;53.62;99809.84;10304018;28;20043;-60
2022/02/19 21:33:54;;;;;;;3.95;1.50;;;;;;;7.12;54.04;99826.19;10317041;28;20089;-61
2022/02/19 21:38:56;;;;;;;4.97;1.33;;;;;;;7.16;53.33;99824.97;10306252;28;20137;-61
2022/02/19 21:43:57;;;;;;;6.25;1.50;;;;;;;7.10;53.64;99815.72;10312361;28;20054;-63
2022/02/19 21:48:59;;;;;;;7.50;1.58;;;;;;;7.11;53.29;99790.06;10340756;28;20053;-61
2022/02/19 21:54:01;;;;;;;8.90;1.10;;;;;;;7.13;53.23;99788.16;10316024;28;20060;-60
2022/02/19 21:59:03;;;;;;;3.63;1.17;;;;;;;7.17;53.04;99779.03;10322079;28;20057;-62
2022/02/19 22:04:04;;;;;;;4.30;1.35;;;;;;;7.16;53.29;99788.78;10316134;28;20073;-61
2022/02/19 22:09:06;;;;;;;6.30;1.20;;;;;;;7.15;53.03;99791.53;10315316;28;20060;-61
2022/02/19 22:14:07;;;;;;;4.05;1.15;;;;;;;7.29;52.98;99794.00;10317026;28;20150;-61
2022/02/19 22:19:09;;;;;;;3.63;1.42;;;;;;;7.30;53.09;99776.34;10314817;28;20045;-61
2022/02/19 22:24:11;;;;;;;3.85;1.27;;;;;;;7.21;53.68;99785.78;10310245;28;20042;-61
2022/02/19 22:29:14;;;;;;;5.40;1.10;;;;;;;7.18;54.34;99801.91;10314284;28;20369;-62
2022/02/19 22:34:17;;;;;;;4.78;1.85;;;;;;;7.14;54.95;99780.09;10307004;28;20566;-60
2022/02/19 22:39:18;;;;;;;3.70;1.23;;;;;;;7.11;54.83;99763.59;10317626;28;20056;-60
2022/02/19 22:44:20;;;;;;;6.68;1.35;;;;;;;7.12;55.21;99779.38;10322268;28;20054;-62
2022/02/19 22:49:22;;;;;;;3.35;1.17;;;;;;;7.14;55.36;99795.13;10313278;28;20081;-61
2022/02/19 22:54:23;;;;;;;5.55;1.20;;;;;;;7.21;55.27;99797.22;10311800;28;20137;-61
2022/02/19 22:59:24;;;;;;;7.03;2.22;;;;;;;6.72;55.49;99713.50;10310682;28;20127;-61
2022/02/19 23:09:46;;;;;;;4.60;1.45;;;;;;;7.06;55.72;99770.06;10313968;28;20129;-61
2022/02/19 23:14:47;;;;;;;3.75;1.35;;;;;;;7.17;56.00;99779.03;10318051;28;20456;-62
2022/02/19 23:19:49;;;;;;;5.20;1.70;;;;;;;7.10;56.17;99786.59;10315060;28;20498;-60
2022/02/19 23:24:52;;;;;;;3.55;0.90;;;;;;;7.12;55.92;99781.19;10321992;28;20605;-61
2022/02/19 23:29:54;;;;;;;4.05;1.15;;;;;;;7.14;56.27;99768.66;10317564;28;20053;-61
2022/02/19 23:34:55;;;;;;;3.80;1.20;;;;;;;7.13;56.59;99774.91;10324081;28;20307;-60
2022/02/19 23:39:58;;;;;;;4.85;1.15;;;;;;;7.12;57.05;99754.72;10315987;28;20200;-62